Time;durP1;ratioP1;P1;durP2;ratioP2;P2;SDS_P1;SDS_P2;PMS_P1;PMS_P2;Temp;Humidity;BMP_temperature;BMP_pressure;BME280_temperature;BME280_humidity;BME280_pressure;Samples;Min_cycle;Max_cycle;Signal;HPM_P1;HPM_P2
2023/03/02 00:02:11;;;;;;;24.70;19.17;;;;;;;6.67;43.59;98217.09;8383243;28;20508;-76
2023/03/02 00:06:16;;;;;;;23.77;17.63;;;;;;;6.83;43.13;98209.84;8383272;28;20409;-76
2023/03/02 00:10:19;;;;;;;22.83;17.80;;;;;;;6.91;43.15;98202.78;8382490;28;20257;-76
2023/03/02 00:14:22;;;;;;;22.90;17.93;;;;;;;6.84;43.15;98206.38;8382780;28;20221;-76
2023/03/02 00:18:25;;;;;;;22.93;17.87;;;;;;;6.77;43.51;98212.56;8382547;28;20236;-76
2023/03/02 00:22:29;;;;;;;21.23;17.23;;;;;;;6.75;43.55;98212.59;8382533;28;20236;-76
2023/03/02 00:26:36;;;;;;;21.90;18.77;;;;;;;6.81;43.30;98206.44;8382653;28;20224;-76
2023/03/02 00:30:39;;;;;;;20.57;17.47;;;;;;;6.68;43.16;98202.50;8382463;28;20228;-76
2023/03/02 00:34:42;;;;;;;23.03;17.03;;;;;;;6.53;43.86;98198.56;8381802;28;20236;-77
2023/03/02 00:38:46;;;;;;;21.23;17.13;;;;;;;6.49;44.22;98191.81;8381803;28;20220;-77
2023/03/02 00:42:49;;;;;;;21.43;17.40;;;;;;;6.47;44.00;98166.09;8381827;28;20418;-76
2023/03/02 00:46:52;;;;;;;22.60;17.37;;;;;;;6.53;44.13;98184.00;8381935;28;20404;-76
2023/03/02 00:50:55;;;;;;;20.27;16.87;;;;;;;6.28;44.36;98152.00;8381816;28;20423;-76
2023/03/02 00:55:00;;;;;;;21.97;17.50;;;;;;;6.20;44.20;98129.06;8381508;28;20287;-76
2023/03/02 00:59:09;;;;;;;24.03;17.17;;;;;;;6.68;43.97;98167.31;8381493;28;20224;-76
2023/03/02 01:03:12;;;;;;;21.30;17.13;;;;;;;6.58;43.92;98156.41;8381705;28;20221;-76
2023/03/02 01:07:17;;;;;;;19.83;16.33;;;;;;;6.36;44.40;98114.06;8381515;28;20273;-76
2023/03/02 01:11:22;;;;;;;20.30;16.23;;;;;;;6.48;44.56;98126.66;8383961;28;20340;-76
2023/03/02 01:15:25;;;;;;;17.57;15.40;;;;;;;6.57;44.43;98139.28;8383761;28;20235;-76
2023/03/02 01:19:28;;;;;;;20.77;16.17;;;;;;;6.41;44.17;98101.94;8383835;28;20233;-76
2023/03/02 01:23:33;;;;;;;21.47;16.20;;;;;;;6.66;44.14;98127.91;8383188;28;20232;-76
2023/03/02 01:27:37;;;;;;;21.37;16.23;;;;;;;6.35;44.90;98130.41;8382935;28;20233;-76
2023/03/02 01:31:40;;;;;;;20.50;16.03;;;;;;;6.31;45.13;98115.94;8381333;28;20225;-76
2023/03/02 01:35:45;;;;;;;20.43;15.97;;;;;;;6.53;44.65;98111.09;8380089;28;20431;-77
2023/03/02 01:39:47;;;;;;;19.63;16.40;;;;;;;6.32;45.12;98104.75;8380459;28;20331;-76
2023/03/02 01:43:51;;;;;;;21.00;16.87;;;;;;;6.28;44.87;98106.56;8380337;28;20224;-76
2023/03/02 01:47:54;;;;;;;18.47;15.83;;;;;;;6.28;45.04;98103.97;8380012;28;20225;-77
2023/03/02 01:51:57;;;;;;;20.90;16.30;;;;;;;6.43;44.64;98107.91;8380143;28;20252;-76
2023/03/02 01:56:01;;;;;;;22.27;16.47;;;;;;;6.35;44.99;98102.13;8380034;28;20224;-76
2023/03/02 02:00:09;;;;;;;20.07;16.47;;;;;;;6.29;44.83;98100.53;8379884;28;20404;-76
2023/03/02 02:04:12;;;;;;;20.10;17.00;;;;;;;6.38;44.81;98091.75;8379789;28;20225;-76
2023/03/02 02:08:15;;;;;;;20.83;16.93;;;;;;;6.20;45.28;98093.03;8379472;28;20232;-76
2023/03/02 02:12:20;;;;;;;22.47;16.70;;;;;;;6.22;45.14;98081.00;8379503;28;20224;-76
2023/03/02 02:16:25;;;;;;;20.60;16.87;;;;;;;6.24;45.26;98087.81;8380063;28;20225;-76
2023/03/02 02:20:30;;;;;;;20.87;16.73;;;;;;;6.23;45.35;98082.69;8382021;28;20232;-76
2023/03/02 02:24:39;;;;;;;21.73;16.30;;;;;;;6.31;45.47;98085.91;8379627;28;20227;-76
2023/03/02 02:28:47;;;;;;;19.73;15.80;;;;;;;6.39;45.04;98078.00;8379348;28;20563;-77
2023/03/02 02:32:51;;;;;;;20.83;16.50;;;;;;;6.35;45.09;98079.81;8381113;28;20229;-76
2023/03/02 02:36:56;;;;;;;20.77;16.60;;;;;;;6.35;45.38;98077.22;8388411;28;20398;-77
2023/03/02 02:41:03;;;;;;;20.80;17.10;;;;;;;5.94;46.59;98068.81;8385754;28;20229;-77
2023/03/02 02:45:18;;;;;;;20.90;16.03;;;;;;;6.24;45.61;98063.78;8385560;28;20256;-77
2023/03/02 02:49:28;;;;;;;20.63;16.13;;;;;;;6.16;45.59;98068.28;8385662;28;20233;-76
2023/03/02 02:53:37;;;;;;;20.93;16.47;;;;;;;6.11;45.90;98067.56;8385094;28;20233;-77
2023/03/02 02:57:41;;;;;;;19.90;15.90;;;;;;;6.00;45.62;98022.41;8385157;28;20229;-77
2023/03/02 03:01:45;;;;;;;20.70;16.47;;;;;;;6.06;46.03;98070.25;8384442;28;20523;-77
2023/03/02 03:05:48;;;;;;;19.60;16.13;;;;;;;6.21;45.58;98077.59;8384849;28;20231;-77
2023/03/02 03:09:55;;;;;;;20.10;16.47;;;;;;;6.07;45.91;98067.66;8384890;28;20528;-76
2023/03/02 03:14:02;;;;;;;19.97;15.63;;;;;;;6.16;45.84;98073.44;8384544;28;20298;-76
2023/03/02 03:18:06;;;;;;;18.00;15.17;;;;;;;6.19;45.73;98069.06;8384723;28;20228;-76
2023/03/02 03:22:11;;;;;;;21.20;16.37;;;;;;;6.07;46.18;98066.78;8384658;28;20230;-76
2023/03/02 03:26:14;;;;;;;20.07;15.57;;;;;;;5.72;45.99;97996.50;8384624;28;20235;-76
2023/03/02 03:30:17;;;;;;;19.33;15.57;;;;;;;6.05;46.22;98060.84;8384182;28;20236;-76
2023/03/02 03:34:21;;;;;;;19.97;16.20;;;;;;;5.87;46.36;98067.25;8384019;28;20228;-76
2023/03/02 03:38:24;;;;;;;18.83;14.83;;;;;;;6.10;46.18;98068.47;8383884;28;20232;-76
2023/03/02 03:42:27;;;;;;;19.27;15.13;;;;;;;6.01;46.71;98066.94;8384001;28;20232;-76
2023/03/02 03:46:30;;;;;;;18.47;15.23;;;;;;;5.94;46.88;98073.06;8383161;28;20228;-77
2023/03/02 03:50:36;;;;;;;19.70;15.53;;;;;;;6.09;46.25;98067.59;8383330;28;20233;-76
2023/03/02 03:54:38;;;;;;;20.37;15.47;;;;;;;6.09;46.23;98066.75;8383354;28;20278;-76
2023/03/02 03:58:41;;;;;;;20.20;15.40;;;;;;;6.12;46.29;98072.66;8382614;28;20225;-77
2023/03/02 04:02:47;;;;;;;21.10;15.43;;;;;;;6.18;45.99;98059.66;8382955;28;20224;-76
2023/03/02 04:06:54;;;;;;;20.57;15.30;;;;;;;6.12;46.19;98048.69;8383237;28;20232;-76
2023/03/02 04:10:59;;;;;;;18.90;15.60;;;;;;;6.07;45.90;98062.50;8383005;28;20240;-77
2023/03/02 04:15:04;;;;;;;19.13;15.83;;;;;;;5.78;46.40;98036.63;8382773;28;20229;-77
2023/03/02 04:19:08;;;;;;;18.97;15.27;;;;;;;5.28;45.93;97924.75;8382682;28;20233;-77
2023/03/02 04:23:12;;;;;;;20.30;15.60;;;;;;;6.12;46.08;98064.13;8382751;28;20285;-77
2023/03/02 04:27:16;;;;;;;18.83;14.83;;;;;;;6.18;45.88;98058.81;8382603;28;20439;-77
2023/03/02 04:31:19;;;;;;;20.93;15.20;;;;;;;6.13;46.11;98060.66;8382458;28;20228;-77
2023/03/02 04:35:22;;;;;;;19.00;14.93;;;;;;;5.75;46.32;98004.16;8382126;28;20249;-77
2023/03/02 04:39:26;;;;;;;20.73;15.43;;;;;;;6.10;46.14;98060.75;8382262;28;20497;-77
2023/03/02 04:43:31;;;;;;;19.67;15.30;;;;;;;6.09;46.04;98059.88;8382052;28;20220;-77
2023/03/02 04:47:33;;;;;;;18.87;15.37;;;;;;;6.17;46.18;98057.97;8381919;28;20225;-77
2023/03/02 04:51:43;;;;;;;19.23;14.60;;;;;;;6.11;46.01;98059.84;8381452;28;20232;-77
2023/03/02 04:55:48;;;;;;;20.80;15.43;;;;;;;6.15;45.99;98061.44;8379976;28;20221;-77
2023/03/02 04:59:51;;;;;;;20.17;15.80;;;;;;;6.14;46.14;98057.22;8381453;28;20228;-76
2023/03/02 05:03:54;;;;;;;20.87;15.60;;;;;;;6.01;45.85;98046.38;8381306;28;20216;-77
2023/03/02 05:07:57;;;;;;;20.70;15.47;;;;;;;6.04;45.89;98047.16;8381180;28;20237;-76
2023/03/02 05:12:01;;;;;;;21.50;16.07;;;;;;;6.09;45.81;98049.59;8380956;28;20234;-76
2023/03/02 05:16:05;;;;;;;19.77;14.73;;;;;;;6.17;45.93;98046.81;8380972;28;20543;-76
2023/03/02 05:20:10;;;;;;;20.30;16.13;;;;;;;6.08;45.75;98045.34;8380812;28;20449;-76
2023/03/02 05:24:13;;;;;;;20.60;15.90;;;;;;;5.80;46.20;98048.53;8380684;28;20425;-76
2023/03/02 05:28:17;;;;;;;18.93;15.57;;;;;;;5.96;45.93;98050.78;8380532;28;20427;-76
2023/03/02 05:32:20;;;;;;;19.47;15.80;;;;;;;5.92;46.17;98044.84;8380188;28;20229;-76
2023/03/02 05:36:23;;;;;;;20.73;16.97;;;;;;;5.95;46.16;98047.38;8380093;28;20224;-77
2023/03/02 05:40:27;;;;;;;22.27;16.77;;;;;;;5.93;45.98;98048.25;8380239;28;20231;-76
2023/03/02 05:44:31;;;;;;;22.07;18.53;;;;;;;5.28;46.34;97982.97;8379979;28;20235;-74
2023/03/02 05:48:34;;;;;;;22.23;18.40;;;;;;;5.65;46.74;98060.06;8379621;28;20279;-77
2023/03/02 05:52:37;;;;;;;21.23;17.07;;;;;;;5.55;46.84;98062.84;8379695;28;20229;-75
2023/03/02 05:56:40;;;;;;;20.83;16.73;;;;;;;5.78;46.42;98047.75;8379113;28;20229;-76
2023/03/02 06:00:44;;;;;;;20.03;15.67;;;;;;;5.74;46.53;98061.53;8379285;28;20217;-77
2023/03/02 06:04:47;;;;;;;19.27;15.30;;;;;;;5.54;46.50;98020.03;8379713;28;20217;-77
2023/03/02 06:08:50;;;;;;;19.50;15.03;;;;;;;5.81;46.87;98067.41;8379115;28;20232;-76
2023/03/02 06:12:53;;;;;;;18.47;15.47;;;;;;;5.95;46.54;98072.22;8379431;28;20221;-77
2023/03/02 06:17:01;;;;;;;20.10;15.30;;;;;;;6.05;46.30;98071.13;8379260;28;20524;-77
2023/03/02 06:21:05;;;;;;;20.00;15.53;;;;;;;6.10;46.48;98084.72;8379304;28;20248;-77
2023/03/02 06:25:08;;;;;;;19.10;15.47;;;;;;;6.38;45.32;98084.03;8378588;28;20225;-76
2023/03/02 06:29:11;;;;;;;20.87;16.30;;;;;;;6.37;45.09;98088.31;8379276;28;20367;-77
2023/03/02 06:33:17;;;;;;;24.90;17.67;;;;;;;6.78;44.80;98090.72;8379014;28;20240;-76
2023/03/02 06:37:20;;;;;;;23.53;17.87;;;;;;;6.98;44.25;98087.56;8379058;28;20552;-77
2023/03/02 06:41:24;;;;;;;20.00;16.20;;;;;;;7.19;43.48;98088.69;8379057;28;20221;-76
2023/03/02 06:45:28;;;;;;;20.37;16.27;;;;;;;7.04;43.28;98031.63;8378784;28;20229;-76
2023/03/02 06:49:32;;;;;;;20.07;16.17;;;;;;;8.02;41.84;98086.19;8378809;28;20259;-77
2023/03/02 06:53:35;;;;;;;18.23;15.17;;;;;;;8.35;41.53;98091.13;8378469;28;20229;-76
2023/03/02 06:57:38;;;;;;;18.93;15.00;;;;;;;8.29;40.97;98058.66;8378634;28;20233;-77
2023/03/02 07:01:41;;;;;;;17.87;15.10;;;;;;;8.08;41.74;98057.63;8378068;28;20236;-77
2023/03/02 07:05:47;;;;;;;20.17;16.00;;;;;;;8.76;41.18;98091.50;8378298;28;20456;-77
2023/03/02 07:09:50;;;;;;;17.87;14.73;;;;;;;8.85;40.98;98092.91;8378390;28;20398;-77
2023/03/02 07:13:53;;;;;;;18.87;14.43;;;;;;;9.17;40.94;98086.59;8378548;28;20221;-77
2023/03/02 07:17:55;;;;;;;21.33;14.60;;;;;;;9.35;40.66;98088.50;8378117;28;20528;-76
2023/03/02 07:22:00;;;;;;;16.87;13.67;;;;;;;9.62;40.24;98093.53;8383004;28;20237;-76
2023/03/02 07:26:07;;;;;;;15.17;13.10;;;;;;;10.00;39.33;98077.41;8384350;28;20512;-76
2023/03/02 07:30:11;;;;;;;17.20;13.53;;;;;;;10.12;39.21;98077.72;8383833;28;20425;-76
2023/03/02 07:34:14;;;;;;;17.23;13.27;;;;;;;10.35;38.47;98053.50;8383903;28;20232;-76
2023/03/02 07:38:18;;;;;;;18.03;14.03;;;;;;;10.43;38.17;98057.53;8383721;28;20225;-76
2023/03/02 07:42:21;;;;;;;16.13;13.43;;;;;;;10.87;37.60;98071.19;8383714;28;20412;-77
2023/03/02 07:46:27;;;;;;;16.67;13.93;;;;;;;11.08;37.32;98087.53;8383715;28;20232;-77
2023/03/02 07:50:30;;;;;;;18.37;13.23;;;;;;;11.39;37.00;98087.91;8383449;28;20230;-76
2023/03/02 07:54:34;;;;;;;16.60;13.97;;;;;;;11.82;36.15;98093.66;8383010;28;20244;-76
2023/03/02 07:58:37;;;;;;;17.90;13.20;;;;;;;12.13;35.70;98091.31;8383301;28;20256;-77
2023/03/02 08:02:41;;;;;;;16.50;13.23;;;;;;;12.44;34.99;98086.38;8382980;28;20238;-76
2023/03/02 08:06:44;;;;;;;17.90;14.07;;;;;;;12.11;35.45;98041.25;8382573;28;20225;-77
2023/03/02 08:10:48;;;;;;;16.10;13.53;;;;;;;12.85;34.50;98086.88;8382783;28;20237;-77
2023/03/02 08:14:51;;;;;;;16.37;13.00;;;;;;;13.16;33.78;98084.44;8383050;28;20445;-76
2023/03/02 08:18:54;;;;;;;17.30;13.37;;;;;;;13.21;33.92;98085.00;8382803;28;20227;-76
2023/03/02 08:23:00;;;;;;;18.33;13.47;;;;;;;12.31;34.52;98011.66;8381760;28;20564;-77
2023/03/02 08:27:05;;;;;;;16.47;13.40;;;;;;;13.13;34.21;98084.59;8382371;28;20227;-77
2023/03/02 08:31:08;;;;;;;14.77;12.30;;;;;;;14.13;32.77;98085.22;8382025;28;20514;-77
2023/03/02 08:35:11;;;;;;;18.23;14.13;;;;;;;14.42;31.82;98070.50;8382205;28;20301;-76
2023/03/02 08:39:14;;;;;;;16.40;13.47;;;;;;;14.31;31.54;98069.44;8382081;28;20231;-76
2023/03/02 08:43:18;;;;;;;18.53;13.53;;;;;;;12.30;34.64;98068.91;8382202;28;20226;-76
2023/03/02 08:47:21;;;;;;;16.70;13.53;;;;;;;13.44;33.20;98066.47;8382228;28;20421;-77
2023/03/02 08:51:27;;;;;;;18.13;13.33;;;;;;;11.06;37.39;98054.78;8381490;28;20232;-77
2023/03/02 08:55:30;;;;;;;22.07;14.87;;;;;;;10.35;38.60;98063.03;8381267;28;20225;-75
2023/03/02 08:59:34;;;;;;;18.30;13.00;;;;;;;10.78;38.18;98052.59;8381205;28;20232;-74
2023/03/02 09:03:37;;;;;;;17.57;13.30;;;;;;;11.32;37.41;98059.63;8381223;28;20233;-75
2023/03/02 09:07:40;;;;;;;18.97;12.97;;;;;;;11.80;35.91;98066.97;8380429;28;20221;-75
2023/03/02 09:11:43;;;;;;;19.13;12.47;;;;;;;11.73;36.53;98058.63;8379430;28;20408;-75
2023/03/02 09:15:47;;;;;;;20.43;13.67;;;;;;;12.19;36.02;98061.63;8380227;28;20229;-75
2023/03/02 09:19:50;;;;;;;19.50;13.23;;;;;;;12.52;34.95;98063.44;8379775;28;20520;-75
2023/03/02 09:23:56;;;;;;;17.53;12.60;;;;;;;11.74;35.91;98063.72;8380182;28;20217;-75
2023/03/02 09:27:59;;;;;;;17.87;12.97;;;;;;;12.51;35.51;98060.00;8380611;28;20225;-76
2023/03/02 09:32:04;;;;;;;19.33;12.60;;;;;;;12.26;35.16;98062.16;8380146;28;20225;-76
2023/03/02 09:36:08;;;;;;;18.80;13.07;;;;;;;12.64;35.60;98056.78;8379732;28;20237;-77
2023/03/02 09:40:17;;;;;;;15.37;12.17;;;;;;;11.38;36.63;98065.47;8379779;28;20225;-76
2023/03/02 09:44:42;;;;;;;19.57;14.73;;;;;;;12.73;34.22;98064.09;8378890;28;20221;-75
2023/03/02 09:49:01;;;;;;;17.90;12.95;;;;;;;13.61;33.62;98060.34;8378376;28;20482;-74
2023/03/02 09:53:37;;;;;;;18.30;12.00;;;;;;;12.78;34.50;98049.13;8378275;28;20248;-74
2023/03/02 09:57:40;;;;;;;16.70;12.63;;;;;;;12.79;35.04;98049.97;8378362;28;20421;-75
2023/03/02 10:01:47;;;;;;;21.27;13.20;;;;;;;13.22;34.48;98032.94;8378407;28;20220;-75
2023/03/02 10:05:54;;;;;;;19.60;11.33;;;;;;;13.41;33.71;98051.00;8378840;28;20234;-75
2023/03/02 10:10:04;;;;;;;17.20;11.17;;;;;;;13.20;34.38;98046.94;8378551;28;20233;-74
2023/03/02 10:14:12;;;;;;;13.93;10.80;;;;;;;13.27;33.62;98019.69;8378578;28;20535;-74
2023/03/02 10:18:21;;;;;;;17.65;11.77;;;;;;;12.55;35.15;98031.28;8377691;28;20417;-74
2023/03/02 10:22:32;;;;;;;16.03;11.00;;;;;;;13.77;32.91;98023.88;8378622;28;20253;-75
2023/03/02 10:26:39;;;;;;;19.93;11.00;;;;;;;12.45;35.27;98030.91;8378302;28;20226;-74
2023/03/02 10:30:43;;;;;;;17.90;11.03;;;;;;;12.32;35.53;98022.91;8377967;28;20228;-75
2023/03/02 10:34:48;;;;;;;16.83;10.80;;;;;;;14.40;33.30;98035.03;8378034;28;20251;-75
2023/03/02 10:38:54;;;;;;;16.70;10.90;;;;;;;15.93;31.05;98032.59;8377190;28;20410;-74
2023/03/02 10:42:57;;;;;;;18.47;10.37;;;;;;;14.45;32.18;98031.25;8377749;28;20456;-74
2023/03/02 10:47:00;;;;;;;16.05;10.43;;;;;;;16.19;30.20;98035.28;8377068;28;20406;-75
2023/03/02 10:51:04;;;;;;;15.37;9.87;;;;;;;16.66;29.37;98027.78;8378076;28;20525;-75
2023/03/02 10:55:14;;;;;;;16.07;10.73;;;;;;;15.87;29.83;98035.59;8381562;28;20528;-75
2023/03/02 10:59:42;;;;;;;16.90;10.33;;;;;;;13.77;33.37;98018.66;8384814;28;20641;-74
2023/03/02 11:03:55;;;;;;;15.68;10.18;;;;;;;14.00;32.56;98017.34;8382053;28;20488;-75
2023/03/02 11:08:00;;;;;;;11.83;9.23;;;;;;;13.73;33.40;98017.16;8384116;28;20233;-75
2023/03/02 11:12:04;;;;;;;13.57;9.03;;;;;;;15.26;31.95;98016.81;8383677;28;20536;-75
2023/03/02 11:16:23;;;;;;;13.97;9.43;;;;;;;13.98;33.23;98006.19;8383486;28;20417;-75
2023/03/02 11:20:30;;;;;;;16.13;9.13;;;;;;;15.36;31.67;98014.47;8383686;28;20402;-75
2023/03/02 11:24:37;;;;;;;13.47;8.93;;;;;;;15.92;30.39;98012.66;8383601;28;20232;-76
2023/03/02 11:28:47;;;;;;;11.20;8.10;;;;;;;16.03;31.15;98001.50;8383116;28;20238;-75
2023/03/02 11:32:53;;;;;;;14.30;8.90;;;;;;;15.60;31.66;98014.69;8382165;28;20417;-75
2023/03/02 11:37:02;;;;;;;14.97;8.17;;;;;;;14.28;32.67;98003.56;8383039;28;20226;-75
2023/03/02 11:41:11;;;;;;;11.40;8.07;;;;;;;14.95;31.37;97934.47;8383031;28;20244;-75
2023/03/02 11:45:21;;;;;;;11.30;7.53;;;;;;;15.03;31.46;97937.41;8382874;28;20520;-75
2023/03/02 11:49:27;;;;;;;15.03;8.27;;;;;;;14.72;32.53;97988.84;8382916;28;20335;-75
2023/03/02 11:53:33;;;;;;;15.03;8.53;;;;;;;14.75;32.02;97993.84;8382488;28;20556;-75
2023/03/02 11:57:39;;;;;;;17.47;8.77;;;;;;;14.18;32.78;97968.56;8382324;28;20320;-75
2023/03/02 12:01:45;;;;;;;12.33;7.67;;;;;;;13.89;33.18;97923.41;8381900;28;20225;-76
2023/03/02 12:06:00;;;;;;;13.23;7.67;;;;;;;15.23;32.09;97978.72;8381523;28;20239;-75
2023/03/02 12:10:07;;;;;;;14.43;7.10;;;;;;;15.29;32.09;97953.16;8382190;28;20419;-73
2023/03/02 12:14:28;;;;;;;10.77;7.10;;;;;;;16.14;31.25;97966.81;8385556;28;20348;-74
2023/03/02 12:18:47;;;;;;;11.47;7.60;;;;;;;15.71;30.64;97959.19;8382054;28;20248;-74
2023/03/02 12:22:50;;;;;;;13.17;8.33;;;;;;;14.28;33.36;97963.69;8380977;28;20250;-75
2023/03/02 12:27:01;;;;;;;15.57;8.47;;;;;;;15.24;32.29;97962.13;8381494;28;20232;-75
2023/03/02 12:31:10;;;;;;;13.17;8.20;;;;;;;14.96;31.63;97964.78;8381682;28;20246;-74
2023/03/02 12:35:18;;;;;;;14.57;8.17;;;;;;;14.66;32.39;97955.34;8381385;28;20221;-75
2023/03/02 12:39:29;;;;;;;13.10;7.30;;;;;;;15.73;31.62;97946.88;8381401;28;20279;-75
2023/03/02 12:43:36;;;;;;;17.13;7.57;;;;;;;16.53;30.97;97938.91;8381175;28;20239;-75
2023/03/02 12:47:42;;;;;;;13.63;7.83;;;;;;;16.63;30.55;97919.03;8380917;28;20556;-75
2023/03/02 12:51:53;;;;;;;14.30;7.67;;;;;;;16.78;29.57;97932.81;8380006;28;20229;-75
2023/03/02 12:55:56;;;;;;;11.33;7.10;;;;;;;16.19;31.02;97928.97;8380754;28;20563;-75
2023/03/02 13:00:01;;;;;;;12.80;7.83;;;;;;;16.97;30.25;97930.59;8380663;28;20277;-75
2023/03/02 13:04:04;;;;;;;15.77;6.87;;;;;;;17.01;30.21;97920.75;8380495;28;20232;-75
2023/03/02 13:08:13;;;;;;;13.00;7.10;;;;;;;16.81;29.95;97911.66;8380697;28;20569;-75
2023/03/02 13:12:16;;;;;;;13.73;7.33;;;;;;;17.44;29.37;97909.81;8380132;28;20236;-75
2023/03/02 13:16:21;;;;;;;10.43;6.00;;;;;;;17.41;29.30;97881.22;8379760;28;20541;-75
2023/03/02 13:20:26;;;;;;;10.23;5.47;;;;;;;15.91;31.50;97901.28;8379757;28;20292;-75
2023/03/02 13:24:33;;;;;;;11.73;6.03;;;;;;;17.33;30.03;97901.91;8379987;28;20228;-74
2023/03/02 13:28:37;;;;;;;7.87;5.33;;;;;;;16.99;29.94;97842.38;8379654;28;20387;-73
2023/03/02 13:32:41;;;;;;;10.63;5.93;;;;;;;17.77;29.38;97897.78;8380120;28;20236;-76
2023/03/02 13:36:44;;;;;;;11.50;5.97;;;;;;;17.55;29.00;97896.78;8379790;28;20233;-75
2023/03/02 13:40:50;;;;;;;8.73;5.70;;;;;;;17.35;28.84;97897.38;8379533;28;20403;-75
2023/03/02 13:44:53;;;;;;;9.80;5.33;;;;;;;16.42;30.14;97888.22;8379116;28;20224;-75
2023/03/02 13:48:56;;;;;;;10.10;5.00;;;;;;;16.67;30.33;97890.91;8379220;28;20234;-74
2023/03/02 13:53:11;;;;;;;11.83;5.10;;;;;;;17.89;28.94;97886.41;8376757;28;20550;-75
2023/03/02 13:57:17;;;;;;;10.03;4.80;;;;;;;15.89;31.13;97884.03;8379132;28;20224;-74
2023/03/02 14:01:19;;;;;;;9.87;4.50;;;;;;;17.62;29.41;97875.34;8379189;28;20323;-74
2023/03/02 14:05:25;;;;;;;13.50;5.43;;;;;;;16.60;30.31;97865.19;8378886;28;20247;-75
2023/03/02 14:09:28;;;;;;;7.47;4.77;;;;;;;15.72;31.26;97864.25;8379100;28;20248;-75
2023/03/02 14:13:37;;;;;;;12.60;4.90;;;;;;;17.47;29.56;97870.28;8379050;28;20255;-75
2023/03/02 14:17:40;;;;;;;10.63;4.63;;;;;;;17.35;29.27;97866.81;8379222;28;20407;-75
2023/03/02 14:21:43;;;;;;;11.37;5.30;;;;;;;16.14;30.80;97870.97;8378577;28;20234;-75
2023/03/02 14:25:46;;;;;;;9.77;4.90;;;;;;;16.80;30.17;97852.47;8378953;28;20227;-75
2023/03/02 14:29:50;;;;;;;11.90;5.20;;;;;;;16.77;30.33;97857.91;8382462;28;20231;-75
2023/03/02 14:33:53;;;;;;;12.47;5.37;;;;;;;16.52;30.23;97849.19;8386041;28;20239;-75
2023/03/02 14:37:56;;;;;;;14.20;5.57;;;;;;;17.18;29.80;97854.97;8385600;28;20231;-75
2023/03/02 14:41:59;;;;;;;11.83;4.97;;;;;;;16.80;30.52;97844.63;8385543;28;20228;-75
2023/03/02 14:46:03;;;;;;;9.33;4.87;;;;;;;17.63;29.10;97851.69;8384941;28;20228;-74
2023/03/02 14:50:06;;;;;;;14.03;5.70;;;;;;;17.39;29.96;97851.72;8385077;28;20348;-75
2023/03/02 14:54:13;;;;;;;11.63;5.30;;;;;;;17.03;30.07;97850.03;8384942;28;20506;-75
2023/03/02 14:58:18;;;;;;;14.93;5.67;;;;;;;16.60;30.08;97852.13;8384848;28;20232;-75
2023/03/02 15:02:23;;;;;;;12.20;5.00;;;;;;;16.99;29.83;97846.78;8384883;28;20232;-75
2023/03/02 15:06:32;;;;;;;17.03;6.93;;;;;;;15.18;32.29;97859.97;8384784;28;20293;-75
2023/03/02 15:10:35;;;;;;;10.90;4.83;;;;;;;16.20;31.11;97857.50;8384478;28;20408;-75
2023/03/02 15:14:38;;;;;;;10.83;5.10;;;;;;;15.74;31.57;97847.56;8384293;28;20232;-75
2023/03/02 15:18:43;;;;;;;12.97;5.37;;;;;;;14.88;32.96;97857.56;8383983;28;20229;-76
2023/03/02 15:22:47;;;;;;;10.90;5.10;;;;;;;14.85;33.05;97856.81;8384195;28;20299;-75
2023/03/02 15:26:52;;;;;;;12.27;5.15;;;;;;;15.75;31.76;97853.66;8383424;28;20416;-74
2023/03/02 15:30:55;;;;;;;14.30;5.57;;;;;;;14.71;33.42;97846.41;8384117;28;20277;-74
2023/03/02 15:35:00;;;;;;;15.17;5.33;;;;;;;15.60;31.81;97853.69;8384137;28;20240;-74
2023/03/02 15:39:03;;;;;;;13.53;5.77;;;;;;;15.57;32.18;97866.97;8384261;28;20225;-74
2023/03/02 15:43:06;;;;;;;14.50;5.20;;;;;;;15.30;32.50;97861.75;8383286;28;20225;-74
2023/03/02 15:47:10;;;;;;;7.90;4.93;;;;;;;14.87;33.39;97854.13;8383805;28;20232;-74
2023/03/02 15:51:15;;;;;;;12.07;5.27;;;;;;;14.71;33.98;97863.81;8383703;28;20224;-75
2023/03/02 15:55:18;;;;;;;13.70;6.03;;;;;;;14.66;33.91;97862.34;8383388;28;20331;-74
2023/03/02 15:59:21;;;;;;;13.87;5.67;;;;;;;14.36;34.38;97870.25;8383866;28;20232;-74
2023/03/02 16:03:25;;;;;;;12.57;5.20;;;;;;;14.78;33.94;97845.09;8383452;28;20276;-74
2023/03/02 16:07:31;;;;;;;17.00;6.23;;;;;;;14.86;33.76;97868.06;8383676;28;20290;-74
2023/03/02 16:11:34;;;;;;;14.40;5.13;;;;;;;14.88;34.75;97875.81;8383422;28;20231;-74
2023/03/02 16:15:39;;;;;;;9.43;5.53;;;;;;;14.81;34.30;97873.59;8383132;28;20225;-74
2023/03/02 16:19:42;;;;;;;10.70;4.87;;;;;;;14.79;35.10;97877.22;8382600;28;20234;-74
2023/03/02 16:23:46;;;;;;;12.13;4.57;;;;;;;14.61;35.13;97868.78;8382937;28;20446;-74
2023/03/02 16:27:49;;;;;;;12.17;5.47;;;;;;;15.17;34.64;97872.19;8380945;28;20402;-74
2023/03/02 16:31:52;;;;;;;12.80;5.53;;;;;;;14.70;35.17;97880.38;8382536;28;20535;-74
2023/03/02 16:35:55;;;;;;;11.30;5.23;;;;;;;14.56;35.56;97884.66;8382366;28;20225;-74
2023/03/02 16:40:00;;;;;;;13.47;6.67;;;;;;;14.48;36.02;97895.53;8382536;28;20229;-74
2023/03/02 16:44:03;;;;;;;12.57;5.90;;;;;;;14.30;36.15;97891.47;8382465;28;20243;-73
2023/03/02 16:48:06;;;;;;;11.57;5.33;;;;;;;14.25;36.32;97894.34;8381937;28;20425;-73
2023/03/02 16:52:09;;;;;;;15.70;5.73;;;;;;;14.14;36.10;97901.97;8381545;28;20236;-73
2023/03/02 16:56:14;;;;;;;19.53;5.60;;;;;;;14.05;36.14;97905.13;8381794;28;20419;-71
2023/03/02 17:00:19;;;;;;;11.53;6.03;;;;;;;14.16;36.41;97912.31;8381858;28;20430;-73
2023/03/02 17:04:21;;;;;;;12.40;6.20;;;;;;;13.95;36.55;97904.81;8381120;28;20356;-73
2023/03/02 17:08:24;;;;;;;16.07;6.97;;;;;;;13.37;37.15;97890.00;8381299;28;20634;-73
2023/03/02 17:12:29;;;;;;;15.57;6.70;;;;;;;13.78;36.88;97911.00;8381244;28;20234;-73
2023/03/02 17:16:32;;;;;;;16.00;6.93;;;;;;;13.81;37.34;97910.84;8380888;28;20447;-74
2023/03/02 17:20:34;;;;;;;12.93;5.80;;;;;;;13.72;37.47;97919.19;8380930;28;20226;-75
2023/03/02 17:24:37;;;;;;;16.50;8.67;;;;;;;13.51;37.51;97912.63;8380093;28;20521;-75
2023/03/02 17:28:42;;;;;;;27.80;13.13;;;;;;;13.56;37.52;97928.81;8380770;28;20239;-72
2023/03/02 17:32:44;;;;;;;25.63;16.00;;;;;;;13.46;37.70;97928.47;8379787;28;20225;-72
2023/03/02 17:36:47;;;;;;;33.90;19.43;;;;;;;13.38;37.82;97934.13;8380168;28;20229;-74
2023/03/02 17:40:50;;;;;;;20.97;11.73;;;;;;;13.39;37.69;97934.97;8380062;28;20221;-75
2023/03/02 17:44:54;;;;;;;21.17;9.83;;;;;;;13.22;37.85;97943.69;8379797;28;20230;-75
2023/03/02 17:48:58;;;;;;;21.50;11.60;;;;;;;13.11;37.63;97933.88;8379622;28;20239;-76
2023/03/02 17:53:02;;;;;;;23.10;12.97;;;;;;;13.16;37.90;97950.06;8379419;28;20417;-75
2023/03/02 17:57:04;;;;;;;28.10;18.73;;;;;;;13.03;38.00;97936.88;8380007;28;20260;-75
2023/03/02 18:01:08;;;;;;;19.50;8.33;;;;;;;12.59;38.29;97963.50;8379698;28;20483;-75
2023/03/02 18:05:12;;;;;;;14.30;8.10;;;;;;;12.64;38.40;97945.94;8379115;28;20229;-76
2023/03/02 18:09:14;;;;;;;17.53;11.97;;;;;;;12.80;38.56;97965.91;8379331;28;20321;-75
2023/03/02 18:13:18;;;;;;;23.47;20.03;;;;;;;12.66;39.04;97969.19;8379303;28;20237;-75
2023/03/02 18:17:22;;;;;;;18.20;10.07;;;;;;;12.31;39.09;97945.91;8379429;28;20232;-76
2023/03/02 18:21:25;;;;;;;19.13;10.13;;;;;;;12.33;39.65;97983.03;8379519;28;20623;-75
2023/03/02 18:25:31;;;;;;;16.77;10.20;;;;;;;12.29;39.27;97992.72;8378895;28;20415;-75
2023/03/02 18:29:33;;;;;;;17.40;11.20;;;;;;;12.00;39.92;98001.16;8378898;28;20324;-75
2023/03/02 18:33:37;;;;;;;17.77;11.33;;;;;;;11.76;40.20;97990.19;8379005;28;20225;-73
2023/03/02 18:37:40;;;;;;;19.70;13.03;;;;;;;11.63;40.32;98000.31;8379329;28;20480;-74
2023/03/02 18:41:43;;;;;;;20.40;12.37;;;;;;;11.59;40.70;98006.56;8378641;28;20423;-76
2023/03/02 18:45:46;;;;;;;18.40;12.67;;;;;;;11.60;40.76;98013.44;8378872;28;20251;-77
2023/03/02 18:49:50;;;;;;;17.93;13.37;;;;;;;11.13;40.75;97968.91;8379052;28;20248;-79
2023/03/02 18:53:54;;;;;;;20.13;14.50;;;;;;;11.43;40.63;98012.47;8378455;28;20233;-79
2023/03/02 18:57:59;;;;;;;21.73;14.80;;;;;;;11.35;40.46;98019.78;8378929;28;20229;-77